createdAt,value
2023-02-24T00:02:14.961Z,6.10
2023-02-24T00:04:42.122Z,6.00
2023-02-24T00:07:12.703Z,6.00
2023-02-24T00:09:40.089Z,6.00
2023-02-24T00:12:11.064Z,5.90
2023-02-24T00:14:42.447Z,5.90
2023-02-24T00:17:10.912Z,5.90
2023-02-24T00:19:38.544Z,6.00
2023-02-24T00:22:08.229Z,6.00
2023-02-24T00:24:35.983Z,6.00
2023-02-24T00:27:07.920Z,5.80
2023-02-24T00:29:37.557Z,5.90
2023-02-24T00:32:07.222Z,5.90
2023-02-24T00:34:37.535Z,5.90
2023-02-24T00:37:08.471Z,5.90
2023-02-24T00:39:36.998Z,6.00
2023-02-24T00:42:06.212Z,6.10
2023-02-24T00:44:54.027Z,6.00
2023-02-24T00:47:22.392Z,6.10
2023-02-24T00:49:50.201Z,6.10
2023-02-24T00:52:20.383Z,6.20
2023-02-24T00:54:49.585Z,6.20
2023-02-24T00:57:18.353Z,6.20
2023-02-24T00:59:48.715Z,6.30
2023-02-24T01:02:16.169Z,6.30
2023-02-24T01:04:44.446Z,6.30
2023-02-24T01:07:12.931Z,6.30
2023-02-24T01:09:41.851Z,6.40
2023-02-24T01:12:32.199Z,6.40
2023-02-24T01:14:59.472Z,6.40
2023-02-24T01:17:26.330Z,6.50
2023-02-24T01:19:55.065Z,6.50
2023-02-24T01:22:22.649Z,6.50
2023-02-24T01:24:49.794Z,6.50
2023-02-24T01:27:19.310Z,6.60
2023-02-24T01:29:47.845Z,6.70
2023-02-24T01:32:20.000Z,6.70
2023-02-24T01:34:51.526Z,6.60
2023-02-24T01:37:19.544Z,6.60
2023-02-24T01:39:47.014Z,6.60
2023-02-24T01:42:19.206Z,6.50
2023-02-24T01:44:46.164Z,6.50
2023-02-24T01:47:14.476Z,6.40
2023-02-24T01:49:45.903Z,6.30
2023-02-24T01:52:23.527Z,6.20
2023-02-24T01:54:57.970Z,6.20
2023-02-24T01:57:29.818Z,6.10
2023-02-24T02:00:09.631Z,6.00
2023-02-24T02:02:38.948Z,6.00
2023-02-24T02:05:09.824Z,6.10
2023-02-24T02:07:41.207Z,6.00
2023-02-24T02:10:09.547Z,6.00
2023-02-24T02:12:44.081Z,6.10
2023-02-24T02:15:20.435Z,6.10
2023-02-24T02:18:20.654Z,6.10
2023-02-24T02:21:25.149Z,6.10
2023-02-24T02:24:29.463Z,6.10
2023-02-24T02:27:35.429Z,6.10
2023-02-24T02:30:43.838Z,6.20
2023-02-24T02:33:49.282Z,6.30
2023-02-24T02:36:57.349Z,6.30
2023-02-24T02:39:49.105Z,6.40
2023-02-24T02:42:28.088Z,6.40
2023-02-24T02:45:07.769Z,6.40
2023-02-24T02:47:44.279Z,6.30
2023-02-24T02:50:21.928Z,6.30
2023-02-24T02:53:00.083Z,6.20
2023-02-24T02:55:37.605Z,6.10
2023-02-24T02:58:09.564Z,6.20
2023-02-24T03:00:43.065Z,6.10
2023-02-24T03:03:16.261Z,6.10
2023-02-24T03:05:52.693Z,6.10
2023-02-24T03:08:26.153Z,6.10
2023-02-24T03:10:54.224Z,6.10
2023-02-24T03:13:30.296Z,6.10
2023-02-24T03:16:02.335Z,6.10
2023-02-24T03:18:39.349Z,6.10
2023-02-24T03:21:11.875Z,6.00
2023-02-24T03:23:46.388Z,6.00
2023-02-24T03:26:52.197Z,6.00
2023-02-24T03:29:50.064Z,5.90
2023-02-24T03:32:25.372Z,5.90
2023-02-24T03:35:12.678Z,5.80
2023-02-24T03:37:39.587Z,5.80
2023-02-24T03:40:17.265Z,5.80
2023-02-24T03:42:47.862Z,5.80
2023-02-24T03:45:17.300Z,5.90
2023-02-24T03:47:47.425Z,5.90
2023-02-24T03:50:21.943Z,6.00
2023-02-24T03:53:31.748Z,6.00
2023-02-24T03:56:22.373Z,5.90
2023-02-24T03:59:23.710Z,5.80
2023-02-24T04:01:57.778Z,5.70
2023-02-24T04:04:51.790Z,5.60
2023-02-24T04:07:44.872Z,5.60
2023-02-24T04:10:27.416Z,5.50
2023-02-24T04:13:19.574Z,5.50
2023-02-24T04:15:58.945Z,5.50
2023-02-24T04:18:31.579Z,5.50
2023-02-24T04:21:02.138Z,5.50
2023-02-24T04:23:34.103Z,5.40
2023-02-24T04:26:01.933Z,5.30
2023-02-24T04:28:29.843Z,5.30
2023-02-24T04:31:06.050Z,5.20
2023-02-24T04:33:33.730Z,5.20
2023-02-24T04:36:00.623Z,5.10
2023-02-24T04:38:27.797Z,5.10
2023-02-24T04:40:55.226Z,5.10
2023-02-24T04:43:22.030Z,5.00
2023-02-24T04:45:51.455Z,4.90
2023-02-24T04:48:20.216Z,4.80
2023-02-24T04:50:48.913Z,4.70
2023-02-24T04:53:17.081Z,4.60
2023-02-24T04:55:50.595Z,4.60
2023-02-24T04:58:27.450Z,4.50
2023-02-24T05:00:55.868Z,4.50
2023-02-24T05:03:27.967Z,4.50
2023-02-24T05:06:00.090Z,4.50
2023-02-24T05:08:29.399Z,4.50
2023-02-24T05:10:58.559Z,4.50
2023-02-24T05:13:28.237Z,4.40
2023-02-24T05:15:58.350Z,4.30
2023-02-24T05:18:26.243Z,4.30
2023-02-24T05:21:14.407Z,4.30
2023-02-24T05:23:46.793Z,4.30
2023-02-24T05:26:19.496Z,4.30
2023-02-24T05:28:52.153Z,4.30
2023-02-24T05:31:28.870Z,4.30
2023-02-24T05:34:03.262Z,4.40
2023-02-24T05:36:40.802Z,4.40
2023-02-24T05:39:11.975Z,4.50
2023-02-24T05:41:42.498Z,4.50
2023-02-24T05:44:13.770Z,4.60
2023-02-24T05:46:46.471Z,4.40
2023-02-24T05:49:32.894Z,4.40
2023-02-24T05:52:07.344Z,4.40
2023-02-24T05:54:39.800Z,4.40
2023-02-24T05:57:15.298Z,4.40
2023-02-24T05:59:44.509Z,4.40
2023-02-24T06:02:15.297Z,4.50
2023-02-24T06:04:51.564Z,4.50
2023-02-24T06:07:25.443Z,4.60
2023-02-24T06:09:58.580Z,4.60
2023-02-24T06:12:30.091Z,4.60
2023-02-24T06:14:58.281Z,4.70
2023-02-24T06:17:25.614Z,4.80
2023-02-24T06:19:54.064Z,4.80
2023-02-24T06:22:25.371Z,4.80
2023-02-24T06:24:54.836Z,4.80
2023-02-24T06:27:24.484Z,4.90
2023-02-24T06:29:54.459Z,4.70
2023-02-24T06:32:25.052Z,4.30
2023-02-24T06:34:56.125Z,4.30
2023-02-24T06:37:23.400Z,4.30
2023-02-24T06:39:50.855Z,4.40
2023-02-24T06:42:17.763Z,4.40
2023-02-24T06:44:45.300Z,4.50
2023-02-24T06:47:14.471Z,4.50
2023-02-24T06:49:42.783Z,4.60
2023-02-24T06:52:11.643Z,4.80
2023-02-24T06:54:38.615Z,5.00
2023-02-24T06:57:05.539Z,5.10
2023-02-24T06:59:33.115Z,5.20
2023-02-24T07:02:04.475Z,5.20
2023-02-24T07:04:43.488Z,5.30
2023-02-24T07:07:10.840Z,5.30
2023-02-24T07:09:37.621Z,5.10
2023-02-24T07:12:04.816Z,5.10
2023-02-24T07:14:31.871Z,5.30
2023-02-24T07:16:59.769Z,5.40
2023-02-24T07:19:29.855Z,5.50
2023-02-24T07:22:03.568Z,5.60
2023-02-24T07:24:37.547Z,5.80
2023-02-24T07:27:13.108Z,6.00
2023-02-24T07:29:40.350Z,6.10
2023-02-24T07:32:10.095Z,6.20
2023-02-24T07:34:40.679Z,6.20
2023-02-24T07:37:09.149Z,6.20
2023-02-24T07:39:39.116Z,6.00
2023-02-24T07:42:08.513Z,6.20
2023-02-24T07:44:35.387Z,6.30
2023-02-24T07:47:07.746Z,6.30
2023-02-24T07:49:35.729Z,6.40
2023-02-24T07:52:02.559Z,6.50
2023-02-24T07:54:30.312Z,6.60
2023-02-24T07:56:59.515Z,6.80
2023-02-24T07:59:30.206Z,6.70
2023-02-24T08:01:57.711Z,6.70
2023-02-24T08:04:30.514Z,6.70
2023-02-24T08:07:02.374Z,6.80
2023-02-24T08:09:46.939Z,6.90
2023-02-24T08:12:21.291Z,7.00
2023-02-24T08:14:52.428Z,7.10
2023-02-24T08:17:26.532Z,7.00
2023-02-24T08:20:21.599Z,6.90
2023-02-24T08:22:52.247Z,6.80
2023-02-24T08:25:35.365Z,6.90
2023-02-24T08:28:09.210Z,6.90
2023-02-24T08:30:45.560Z,7.10
2023-02-24T08:33:23.205Z,7.30
2023-02-24T08:36:01.221Z,7.30
2023-02-24T08:38:42.529Z,7.30
2023-02-24T08:41:19.985Z,7.30
2023-02-24T08:43:49.146Z,7.30
2023-02-24T08:46:21.363Z,7.10
2023-02-24T08:48:55.701Z,7.40
2023-02-24T08:51:30.620Z,7.60
2023-02-24T08:54:10.911Z,7.40
2023-02-24T08:56:43.340Z,7.20
2023-02-24T08:59:28.967Z,7.20
2023-02-24T09:02:17.190Z,7.50
2023-02-24T09:04:56.613Z,7.70
2023-02-24T09:07:35.299Z,7.70
2023-02-24T09:10:17.728Z,7.80
2023-02-24T09:12:45.324Z,7.80
2023-02-24T09:15:15.830Z,7.90
2023-02-24T09:17:44.948Z,8.20
2023-02-24T09:20:28.185Z,8.40
2023-02-24T09:23:03.311Z,8.70
2023-02-24T09:25:44.045Z,8.70
2023-02-24T09:28:24.498Z,8.70
2023-02-24T09:30:57.458Z,8.60
2023-02-24T09:33:38.581Z,8.90
2023-02-24T09:36:12.719Z,9.10
2023-02-24T09:38:59.232Z,9.20
2023-02-24T09:41:57.059Z,9.40
2023-02-24T09:44:36.600Z,9.30
2023-02-24T09:47:15.934Z,9.30
2023-02-24T09:49:56.263Z,9.20
2023-02-24T09:52:43.633Z,9.30
2023-02-24T09:55:35.863Z,9.70
2023-02-24T09:58:43.654Z,10.00
2023-02-24T10:02:02.634Z,9.90
2023-02-24T10:05:07.204Z,10.00
2023-02-24T10:07:40.294Z,9.70
2023-02-24T10:10:35.802Z,9.70
2023-02-24T10:13:30.372Z,9.90
2023-02-24T10:16:07.000Z,10.00
2023-02-24T10:18:45.519Z,9.50
2023-02-24T10:21:49.987Z,9.50
2023-02-24T10:24:34.316Z,9.10
2023-02-24T10:27:16.896Z,8.90
2023-02-24T10:30:10.966Z,9.20
2023-02-24T10:32:58.776Z,9.50
2023-02-24T10:35:33.593Z,9.70
2023-02-24T10:38:05.795Z,10.00
2023-02-24T10:40:46.975Z,10.20
2023-02-24T10:43:29.791Z,10.50
2023-02-24T10:46:06.252Z,10.40
2023-02-24T10:48:42.242Z,10.30
2023-02-24T10:51:22.984Z,10.10
2023-02-24T10:54:09.743Z,10.00
2023-02-24T10:56:44.791Z,10.00
2023-02-24T10:59:40.964Z,9.80
2023-02-24T11:02:32.753Z,9.80
2023-02-24T11:05:27.045Z,9.50
2023-02-24T11:08:38.199Z,9.50
2023-02-24T11:11:20.375Z,9.60
2023-02-24T11:14:10.000Z,9.90
2023-02-24T11:17:12.506Z,10.00
2023-02-24T11:20:15.110Z,9.70
2023-02-24T11:22:46.430Z,10.10
2023-02-24T11:25:24.263Z,10.00
2023-02-24T11:27:55.006Z,10.30
2023-02-24T11:30:36.730Z,10.50
2023-02-24T11:33:10.431Z,10.80
2023-02-24T11:36:05.213Z,11.10
2023-02-24T11:38:45.316Z,11.20
2023-02-24T11:41:35.083Z,11.30
2023-02-24T11:44:23.272Z,11.30
2023-02-24T11:46:59.197Z,11.10
2023-02-24T11:49:45.474Z,10.80
2023-02-24T11:52:27.424Z,10.80
2023-02-24T11:54:58.142Z,11.10
2023-02-24T11:57:40.422Z,11.00
2023-02-24T12:00:50.009Z,11.40
2023-02-24T12:03:32.128Z,11.80
2023-02-24T12:06:21.338Z,11.70
2023-02-24T12:08:54.415Z,11.70
2023-02-24T12:11:38.637Z,12.10
2023-02-24T12:14:23.420Z,11.90
2023-02-24T12:17:03.247Z,12.00
2023-02-24T12:19:51.687Z,12.00
2023-02-24T12:22:18.872Z,12.00
2023-02-24T12:24:51.508Z,12.00
2023-02-24T12:28:05.746Z,11.80
2023-02-24T12:31:08.742Z,11.80
2023-02-24T12:34:08.610Z,11.60
2023-02-24T12:36:51.339Z,11.50
2023-02-24T12:39:29.799Z,11.70
2023-02-24T12:42:29.821Z,11.80
2023-02-24T12:45:12.460Z,11.70
2023-02-24T12:48:04.340Z,11.70
2023-02-24T12:50:42.442Z,11.90
2023-02-24T12:53:23.368Z,11.90
2023-02-24T12:56:00.418Z,11.90
2023-02-24T12:58:34.365Z,11.70
2023-02-24T13:01:28.107Z,11.50
2023-02-24T13:04:37.857Z,11.40
2023-02-24T13:07:35.674Z,11.50
2023-02-24T13:10:14.389Z,11.40
2023-02-24T13:13:15.550Z,11.50
2023-02-24T13:15:55.096Z,11.40
2023-02-24T13:18:28.800Z,11.30
2023-02-24T13:21:22.611Z,11.50
2023-02-24T13:24:01.448Z,11.50
2023-02-24T13:26:31.294Z,11.60
2023-02-24T13:29:17.857Z,11.80
2023-02-24T13:31:52.842Z,12.00
2023-02-24T13:34:42.371Z,12.20
2023-02-24T13:37:10.761Z,12.40
2023-02-24T13:39:47.002Z,12.40
2023-02-24T13:42:20.619Z,12.40
2023-02-24T13:45:19.592Z,12.20
2023-02-24T13:48:10.517Z,12.50
2023-02-24T13:51:32.588Z,12.60
2023-02-24T13:54:34.654Z,12.50
2023-02-24T13:57:25.726Z,12.80
2023-02-24T14:00:21.686Z,12.80
2023-02-24T14:02:52.835Z,12.60
2023-02-24T14:05:35.906Z,12.30
2023-02-24T14:08:04.670Z,12.40
2023-02-24T14:10:34.682Z,12.70
2023-02-24T14:13:27.789Z,13.60
2023-02-24T14:15:56.490Z,14.40
2023-02-24T14:18:29.732Z,14.60
2023-02-24T14:20:58.254Z,14.20
2023-02-24T14:23:31.614Z,13.70
2023-02-24T14:26:02.121Z,13.40
2023-02-24T14:28:33.539Z,13.00
2023-02-24T14:31:09.137Z,12.70
2023-02-24T14:33:44.950Z,12.40
2023-02-24T14:36:19.324Z,12.00
2023-02-24T14:38:46.854Z,11.90
2023-02-24T14:41:25.276Z,11.80
2023-02-24T14:43:53.750Z,11.50
2023-02-24T14:46:21.377Z,11.60
2023-02-24T14:48:55.369Z,11.50
2023-02-24T14:51:35.443Z,11.40
2023-02-24T14:54:09.013Z,11.30
2023-02-24T14:56:37.030Z,11.20
2023-02-24T14:59:24.701Z,11.20
2023-02-24T15:01:54.721Z,11.30
2023-02-24T15:04:24.499Z,11.00
2023-02-24T15:06:51.639Z,11.10
2023-02-24T15:09:29.575Z,11.10
2023-02-24T15:11:56.696Z,10.90
2023-02-24T15:14:29.800Z,10.90
2023-02-24T15:17:01.971Z,10.90
2023-02-24T15:19:35.986Z,11.10
2023-02-24T15:22:03.796Z,11.00
2023-02-24T15:24:34.172Z,10.80
2023-02-24T15:27:24.453Z,10.70
2023-02-24T15:30:30.279Z,10.70
2023-02-24T15:33:20.695Z,10.60
2023-02-24T15:35:55.372Z,10.50
2023-02-24T15:38:29.498Z,10.50
2023-02-24T15:41:00.399Z,10.60
2023-02-24T15:43:38.350Z,10.50
2023-02-24T15:46:15.335Z,10.30
2023-02-24T15:48:48.156Z,10.30
2023-02-24T15:51:40.402Z,10.30
2023-02-24T15:54:17.233Z,10.10
2023-02-24T15:56:45.393Z,10.20
2023-02-24T15:59:21.927Z,10.30
2023-02-24T16:01:49.068Z,10.40
2023-02-24T16:04:15.991Z,10.40
2023-02-24T16:06:54.615Z,10.50
2023-02-24T16:09:40.283Z,10.30
2023-02-24T16:12:25.087Z,10.40
2023-02-24T16:15:02.086Z,10.40
2023-02-24T16:17:41.698Z,10.50
2023-02-24T16:20:28.597Z,10.40
2023-02-24T16:22:57.515Z,10.30
2023-02-24T16:25:25.893Z,10.10
2023-02-24T16:27:57.155Z,10.10
2023-02-24T16:30:30.490Z,10.00
2023-02-24T16:32:59.629Z,10.00
2023-02-24T16:35:28.209Z,10.00
2023-02-24T16:37:55.241Z,10.00
2023-02-24T16:40:30.732Z,10.00
2023-02-24T16:42:57.804Z,10.00
2023-02-24T16:45:32.051Z,10.10
2023-02-24T16:48:02.506Z,9.90
2023-02-24T16:50:42.703Z,9.70
2023-02-24T16:53:18.686Z,9.80
2023-02-24T16:55:46.877Z,9.80
2023-02-24T16:58:14.276Z,9.70
2023-02-24T17:00:44.820Z,9.70
2023-02-24T17:03:25.906Z,9.70
2023-02-24T17:05:53.526Z,9.60
2023-02-24T17:08:21.246Z,9.60
2023-02-24T17:10:49.565Z,9.50
2023-02-24T17:13:20.217Z,9.40
2023-02-24T17:15:47.616Z,9.50
2023-02-24T17:18:14.438Z,9.40
2023-02-24T17:20:42.465Z,9.30
2023-02-24T17:23:11.368Z,9.40
2023-02-24T17:25:38.868Z,9.40
2023-02-24T17:28:06.499Z,9.30
2023-02-24T17:30:35.479Z,9.20
2023-02-24T17:33:03.237Z,9.30
2023-02-24T17:35:30.080Z,9.40
2023-02-24T17:37:56.992Z,9.40
2023-02-24T17:40:24.231Z,9.50
2023-02-24T17:42:51.399Z,9.30
2023-02-24T17:45:18.456Z,9.40
2023-02-24T17:47:45.357Z,9.30
2023-02-24T17:50:13.336Z,9.30
2023-02-24T17:52:40.752Z,9.30
2023-02-24T17:55:08.597Z,9.30
2023-02-24T17:57:36.493Z,9.30
2023-02-24T18:00:05.692Z,9.20
2023-02-24T18:02:32.753Z,9.20
2023-02-24T18:05:01.145Z,9.20
2023-02-24T18:07:28.175Z,9.30
2023-02-24T18:09:54.998Z,9.30
2023-02-24T18:12:21.858Z,9.30
2023-02-24T18:14:59.093Z,9.30
2023-02-24T18:17:33.253Z,9.20
2023-02-24T18:20:00.118Z,9.20
2023-02-24T18:22:27.042Z,9.20
2023-02-24T18:24:53.844Z,9.30
2023-02-24T18:27:22.177Z,9.20
2023-02-24T18:29:49.020Z,9.20
2023-02-24T18:32:16.181Z,9.20
2023-02-24T18:34:43.135Z,9.20
2023-02-24T18:37:09.966Z,9.10
2023-02-24T18:39:36.898Z,9.00
2023-02-24T18:42:03.992Z,9.00
2023-02-24T18:44:31.138Z,9.00
2023-02-24T18:46:58.043Z,9.10
2023-02-24T18:49:24.949Z,9.20
2023-02-24T18:51:51.770Z,9.00
2023-02-24T18:54:19.458Z,9.10
2023-02-24T18:56:46.287Z,9.10
2023-02-24T18:59:13.202Z,9.00
2023-02-24T19:01:40.319Z,9.00
2023-02-24T19:04:08.702Z,9.00
2023-02-24T19:06:36.417Z,9.10
2023-02-24T19:09:10.834Z,9.10
2023-02-24T19:11:40.402Z,9.10
2023-02-24T19:14:09.874Z,9.00
2023-02-24T19:16:38.468Z,9.10
2023-02-24T19:19:05.975Z,9.00
2023-02-24T19:21:33.860Z,8.90
2023-02-24T19:24:03.537Z,8.50
2023-02-24T19:26:30.827Z,8.20
2023-02-24T19:28:58.875Z,8.20
2023-02-24T19:31:29.211Z,8.10
2023-02-24T19:34:02.308Z,8.10
2023-02-24T19:36:31.455Z,8.10
2023-02-24T19:38:58.605Z,8.00
2023-02-24T19:41:25.677Z,8.00
2023-02-24T19:43:52.849Z,7.80
2023-02-24T19:46:20.178Z,7.70
2023-02-24T19:48:48.495Z,7.70
2023-02-24T19:51:22.765Z,7.60
2023-02-24T19:53:57.608Z,7.70
2023-02-24T19:56:33.449Z,7.60
2023-02-24T19:59:02.775Z,7.70
2023-02-24T20:01:30.568Z,7.70
2023-02-24T20:04:00.811Z,7.70
2023-02-24T20:06:32.091Z,7.60
2023-02-24T20:09:00.533Z,7.60
2023-02-24T20:11:32.842Z,7.70
2023-02-24T20:13:59.719Z,7.60
2023-02-24T20:16:28.615Z,7.60
2023-02-24T20:18:55.750Z,7.60
2023-02-24T20:21:22.742Z,7.60
2023-02-24T20:23:50.572Z,7.60
2023-02-24T20:26:17.890Z,7.60
2023-02-24T20:28:47.720Z,7.50
2023-02-24T20:31:18.475Z,7.50
2023-02-24T20:33:49.172Z,7.50
2023-02-24T20:36:28.092Z,7.50
2023-02-24T20:38:57.685Z,7.50
2023-02-24T20:41:26.480Z,7.50
2023-02-24T20:43:54.638Z,7.30
2023-02-24T20:46:30.438Z,7.20
2023-02-24T20:49:04.456Z,7.10
2023-02-24T20:51:32.816Z,7.20
2023-02-24T20:54:00.505Z,7.10
2023-02-24T20:56:32.866Z,7.00
2023-02-24T20:59:07.457Z,6.90
2023-02-24T21:01:36.441Z,7.00
2023-02-24T21:04:04.037Z,7.00
2023-02-24T21:06:31.543Z,7.00
2023-02-24T21:08:58.979Z,6.90
2023-02-24T21:11:30.144Z,7.00
2023-02-24T21:13:57.770Z,6.90
2023-02-24T21:16:25.454Z,7.00
2023-02-24T21:18:53.332Z,6.90
2023-02-24T21:21:20.976Z,6.80
2023-02-24T21:23:48.462Z,6.80
2023-02-24T21:26:15.789Z,6.70
2023-02-24T21:28:42.900Z,6.80
2023-02-24T21:31:12.965Z,6.70
2023-02-24T21:33:39.978Z,6.80
2023-02-24T21:36:13.366Z,6.80
2023-02-24T21:38:41.324Z,6.80
2023-02-24T21:41:14.861Z,6.80
2023-02-24T21:43:44.093Z,6.80
2023-02-24T21:46:13.220Z,6.80
2023-02-24T21:48:41.721Z,6.80
2023-02-24T21:51:11.829Z,6.70
2023-02-24T21:53:41.735Z,6.70
2023-02-24T21:56:16.554Z,6.70
2023-02-24T21:58:58.925Z,6.70
2023-02-24T22:01:39.473Z,6.60
2023-02-24T22:04:17.910Z,6.60
2023-02-24T22:06:45.255Z,6.70
2023-02-24T22:09:20.450Z,6.80
2023-02-24T22:11:49.732Z,6.60
2023-02-24T22:14:17.317Z,6.70
2023-02-24T22:16:44.583Z,6.50
2023-02-24T22:19:12.206Z,6.50
2023-02-24T22:21:42.281Z,6.40
2023-02-24T22:24:16.148Z,6.40
2023-02-24T22:26:44.182Z,6.50
2023-02-24T22:29:11.640Z,6.40
2023-02-24T22:31:39.570Z,6.20
2023-02-24T22:34:08.587Z,6.10
2023-02-24T22:36:38.955Z,5.80
2023-02-24T22:39:08.836Z,5.70
2023-02-24T22:41:36.567Z,5.50
2023-02-24T22:44:05.981Z,5.40
2023-02-24T22:46:36.517Z,5.40
2023-02-24T22:49:04.149Z,5.30
2023-02-24T22:51:31.152Z,5.50
2023-02-24T22:53:58.055Z,5.30
2023-02-24T22:56:27.257Z,5.20
2023-02-24T22:58:54.983Z,5.30
2023-02-24T23:01:26.146Z,4.90
2023-02-24T23:03:53.472Z,4.80
2023-02-24T23:06:23.799Z,4.90
2023-02-24T23:08:51.562Z,4.70
2023-02-24T23:11:22.630Z,4.70
2023-02-24T23:13:51.277Z,4.50
2023-02-24T23:16:21.987Z,4.30
2023-02-24T23:18:54.230Z,4.30
2023-02-24T23:21:25.585Z,4.20
2023-02-24T23:24:00.069Z,4.10
2023-02-24T23:26:42.692Z,4.00
2023-02-24T23:29:12.547Z,4.10
2023-02-24T23:31:40.651Z,4.00
2023-02-24T23:34:08.036Z,3.90
2023-02-24T23:36:41.623Z,3.80
2023-02-24T23:39:09.749Z,3.80
2023-02-24T23:41:38.366Z,3.80
2023-02-24T23:44:06.313Z,3.80
2023-02-24T23:46:34.803Z,3.90
2023-02-24T23:49:02.148Z,3.90
2023-02-24T23:51:38.583Z,3.80
2023-02-24T23:54:11.001Z,3.70
2023-02-24T23:56:37.823Z,3.70
2023-02-24T23:59:04.621Z,3.70
